createdAt,value
2018-09-23T00:00:01.269Z,100832.18
2018-09-23T00:02:28.264Z,100825.59
2018-09-23T00:04:55.335Z,100826.52
2018-09-23T00:07:22.328Z,100816.09
2018-09-23T00:09:49.321Z,100833.44
2018-09-23T00:12:16.400Z,100827.73
2018-09-23T00:14:43.479Z,100827.34
2018-09-23T00:17:10.783Z,100827.73
2018-09-23T00:19:37.751Z,100830.92
2018-09-23T00:22:04.816Z,100826.00
2018-09-23T00:24:32.745Z,100823.77
2018-09-23T00:26:59.736Z,100829.28
2018-09-23T00:30:03.715Z,100827.82
2018-09-23T00:32:30.769Z,100827.99
2018-09-23T00:34:57.892Z,100829.42
2018-09-23T00:37:24.977Z,100826.41
2018-09-23T00:39:52.028Z,100832.20
2018-09-23T00:42:19.012Z,100829.77
2018-09-23T00:44:46.276Z,100831.20
2018-09-23T00:47:13.355Z,100832.89
2018-09-23T00:49:40.361Z,100837.03
2018-09-23T00:52:07.404Z,100829.95
2018-09-23T00:54:34.488Z,100834.97
2018-09-23T00:57:01.493Z,100842.39
2018-09-23T00:59:28.493Z,100836.52
2018-09-23T01:01:55.500Z,100833.80
2018-09-23T01:04:22.665Z,100839.76
2018-09-23T01:06:49.682Z,100839.02
2018-09-23T01:09:16.710Z,100831.98
2018-09-23T01:11:44.016Z,100829.73
2018-09-23T01:14:10.991Z,100827.92
2018-09-23T01:16:37.975Z,100825.50
2018-09-23T01:19:05.359Z,100829.43
2018-09-23T01:21:32.446Z,100821.88
2018-09-23T01:23:59.431Z,100815.47
2018-09-23T01:26:26.523Z,100814.48
2018-09-23T01:28:53.504Z,100819.01
2018-09-23T01:31:20.500Z,100820.27
2018-09-23T01:33:47.592Z,100815.30
2018-09-23T01:36:14.712Z,100817.10
2018-09-23T01:38:41.726Z,100810.45
2018-09-23T01:41:08.887Z,100815.76
2018-09-23T01:43:35.872Z,100813.73
2018-09-23T01:46:02.857Z,100816.72
2018-09-23T01:48:30.030Z,100809.16
2018-09-23T01:50:57.038Z,100800.52
2018-09-23T01:53:24.104Z,100798.83
2018-09-23T01:55:51.081Z,100802.05
2018-09-23T01:58:18.431Z,100801.05
2018-09-23T02:00:45.591Z,100801.35
2018-09-23T02:03:12.635Z,100799.59
2018-09-23T02:05:39.635Z,100800.65
2018-09-23T02:08:06.632Z,100797.86
2018-09-23T02:10:33.704Z,100784.86
2018-09-23T02:13:00.802Z,100784.86
2018-09-23T02:15:27.926Z,100778.12
2018-09-23T02:17:55.027Z,100779.09
2018-09-23T02:20:28.976Z,100779.47
2018-09-23T02:22:55.947Z,100779.64
2018-09-23T02:25:22.928Z,100775.02
2018-09-23T02:27:50.260Z,100773.64
2018-09-23T02:30:17.243Z,100780.41
2018-09-23T02:32:44.212Z,100778.16
2018-09-23T02:35:11.396Z,100781.14
2018-09-23T02:37:38.390Z,100779.16
2018-09-23T02:40:05.568Z,100768.85
2018-09-23T02:42:32.544Z,100757.89
2018-09-23T02:44:59.545Z,100753.91
2018-09-23T02:47:26.724Z,100752.44
2018-09-23T02:49:53.779Z,100755.81
2018-09-23T02:52:20.779Z,100758.95
2018-09-23T02:54:47.906Z,100758.22
2018-09-23T02:57:14.867Z,100764.25
2018-09-23T02:59:41.951Z,100763.48
2018-09-23T03:02:08.922Z,100760.66
2018-09-23T03:04:35.995Z,100765.28
2018-09-23T03:07:03.320Z,100756.62
2018-09-23T03:09:30.592Z,100752.00
2018-09-23T03:11:57.572Z,100759.25
2018-09-23T03:14:24.892Z,100751.23
2018-09-23T03:16:51.959Z,100752.99
2018-09-23T03:19:18.939Z,100741.52
2018-09-23T03:21:46.524Z,100739.27
2018-09-23T03:24:13.671Z,100730.52
2018-09-23T03:26:40.741Z,100728.56
2018-09-23T03:29:07.987Z,100726.55
2018-09-23T03:31:35.043Z,100722.53
2018-09-23T03:34:02.015Z,100718.00
2018-09-23T03:36:29.215Z,100711.27
2018-09-23T03:38:56.317Z,100714.03
2018-09-23T03:41:23.406Z,100712.69
2018-09-23T03:43:50.422Z,100712.56
2018-09-23T03:46:17.499Z,100706.82
2018-09-23T03:48:44.547Z,100709.70
2018-09-23T03:51:11.798Z,100712.86
2018-09-23T03:53:38.798Z,100708.19
2018-09-23T03:56:05.799Z,100706.80
2018-09-23T03:58:32.849Z,100699.63
2018-09-23T04:00:59.835Z,100712.97
2018-09-23T04:03:26.814Z,100715.56
2018-09-23T04:05:53.911Z,100711.07
2018-09-23T04:08:20.972Z,100709.14
2018-09-23T04:10:48.036Z,100708.98
2018-09-23T04:13:15.203Z,100709.97
2018-09-23T04:15:42.255Z,100706.86
2018-09-23T04:18:09.308Z,100699.97
2018-09-23T04:20:36.477Z,100692.08
2018-09-23T04:23:03.544Z,100693.67
2018-09-23T04:25:30.523Z,100698.16
2018-09-23T04:27:57.500Z,100686.00
2018-09-23T04:30:24.702Z,100680.99
2018-09-23T04:32:52.143Z,100676.69
2018-09-23T04:35:19.239Z,100671.25
2018-09-23T04:37:46.943Z,100672.23
2018-09-23T04:40:13.980Z,100669.44
2018-09-23T04:42:40.970Z,100679.75
2018-09-23T04:45:07.968Z,100676.90
2018-09-23T04:47:35.036Z,100680.58
2018-09-23T04:50:02.018Z,100681.17
2018-09-23T04:52:28.995Z,100688.78
2018-09-23T04:54:56.117Z,100683.98
2018-09-23T04:57:23.113Z,100679.97
2018-09-23T04:59:50.088Z,100674.41
2018-09-23T05:02:17.534Z,100672.46
2018-09-23T05:04:44.603Z,100673.72
2018-09-23T05:07:11.727Z,100669.88
2018-09-23T05:09:38.835Z,100663.80
2018-09-23T05:12:05.840Z,100660.91
2018-09-23T05:14:32.905Z,100664.39
2018-09-23T05:16:59.956Z,100673.45
2018-09-23T05:19:26.935Z,100675.39
2018-09-23T05:21:54.044Z,100678.30
2018-09-23T05:24:21.030Z,100678.30
2018-09-23T05:26:48.168Z,100680.36
2018-09-23T05:29:15.161Z,100676.52
2018-09-23T05:31:42.343Z,100687.30
2018-09-23T05:34:09.495Z,100679.05
2018-09-23T05:36:36.472Z,100677.54
2018-09-23T05:39:05.045Z,100675.03
2018-09-23T05:41:32.321Z,100670.50
2018-09-23T05:43:59.315Z,100677.95
2018-09-23T05:46:26.310Z,100676.80
2018-09-23T05:48:53.396Z,100674.98
2018-09-23T05:51:20.492Z,100672.59
2018-09-23T05:53:47.487Z,100669.79
2018-09-23T05:56:14.540Z,100669.05
2018-09-23T05:58:41.791Z,100676.26
2018-09-23T06:01:08.887Z,100684.45
2018-09-23T06:03:35.931Z,100684.78
2018-09-23T06:06:03.003Z,100680.16
2018-09-23T06:08:30.060Z,100686.99
2018-09-23T06:10:57.384Z,100675.72
2018-09-23T06:13:24.442Z,100670.83
2018-09-23T06:15:51.551Z,100667.84
2018-09-23T06:18:18.631Z,100663.22
2018-09-23T06:20:45.835Z,100667.47
2018-09-23T06:23:12.796Z,100672.21
2018-09-23T06:25:39.843Z,100671.00
2018-09-23T06:28:07.231Z,100671.39
2018-09-23T06:30:34.376Z,100668.88
2018-09-23T06:33:01.695Z,100671.86
2018-09-23T06:35:28.735Z,100671.66
2018-09-23T06:37:55.727Z,100663.19
2018-09-23T06:40:22.706Z,100668.38
2018-09-23T06:42:49.839Z,100675.52
2018-09-23T06:45:16.834Z,100675.72
2018-09-23T06:47:43.822Z,100664.86
2018-09-23T06:50:10.951Z,100658.80
2018-09-23T06:52:38.328Z,100663.53
2018-09-23T06:55:05.512Z,100661.30
2018-09-23T06:57:32.608Z,100670.27
2018-09-23T06:59:59.972Z,100670.86
2018-09-23T07:02:27.049Z,100665.85
2018-09-23T07:04:54.037Z,100672.59
2018-09-23T07:07:21.429Z,100672.09
2018-09-23T07:09:48.428Z,100671.81
2018-09-23T07:12:15.391Z,100665.16
2018-09-23T07:17:42.783Z,100656.81
2018-09-23T07:20:09.893Z,100656.34
2018-09-23T07:22:36.959Z,100655.56
2018-09-23T07:25:04.196Z,100657.48
2018-09-23T07:27:31.579Z,100664.81
2018-09-23T07:29:58.710Z,100664.23
2018-09-23T07:32:25.908Z,100660.97
2018-09-23T07:34:52.876Z,100656.88
2018-09-23T07:37:19.860Z,100667.39
2018-09-23T07:39:46.997Z,100675.70
2018-09-23T07:42:14.275Z,100676.48
2018-09-23T07:44:41.278Z,100676.38
2018-09-23T07:47:08.288Z,100663.16
2018-09-23T07:49:35.608Z,100661.83
2018-09-23T07:52:02.857Z,100658.21
2018-09-23T07:54:31.207Z,100661.42
2018-09-23T07:56:58.267Z,100653.08
2018-09-23T07:59:25.396Z,100656.14
2018-09-23T08:01:53.372Z,100658.10
2018-09-23T08:04:20.741Z,100659.23
2018-09-23T08:06:47.915Z,100655.00
2018-09-23T08:09:14.906Z,100650.82
2018-09-23T08:11:42.600Z,100660.53
2018-09-23T08:14:10.659Z,100651.16
2018-09-23T08:16:38.391Z,100655.58
2018-09-23T08:19:06.785Z,100654.11
2018-09-23T08:21:35.357Z,100664.42
2018-09-23T08:24:02.441Z,100656.79
2018-09-23T08:26:30.505Z,100645.77
2018-09-23T08:28:57.743Z,100646.81
2018-09-23T08:31:25.753Z,100658.09
2018-09-23T08:33:53.862Z,100656.44
2018-09-23T08:36:21.703Z,100654.97
2018-09-23T08:38:50.609Z,100648.91
2018-09-23T08:41:17.956Z,100644.93
2018-09-23T08:43:44.935Z,100648.88
2018-09-23T08:46:11.955Z,100647.98
2018-09-23T08:48:38.947Z,100644.88
2018-09-23T08:51:05.955Z,100640.09
2018-09-23T08:53:33.408Z,100645.95
2018-09-23T08:56:00.476Z,100643.66
2018-09-23T08:58:27.535Z,100640.23
2018-09-23T09:00:54.517Z,100625.21
2018-09-23T09:03:21.516Z,100622.74
2018-09-23T09:05:48.571Z,100618.75
2018-09-23T09:08:15.876Z,100618.98
2018-09-23T09:10:42.857Z,100613.61
2018-09-23T09:13:09.910Z,100606.09
2018-09-23T09:15:36.900Z,100608.92
2018-09-23T09:18:03.911Z,100604.55
2018-09-23T09:20:31.235Z,100611.60
2018-09-23T09:22:58.207Z,100607.43
2018-09-23T09:25:25.191Z,100606.47
2018-09-23T09:27:52.176Z,100591.63
2018-09-23T09:30:19.223Z,100587.73
2018-09-23T09:32:46.249Z,100590.09
2018-09-23T09:35:13.236Z,100591.81
2018-09-23T09:37:40.245Z,100590.16
2018-09-23T09:40:07.610Z,100604.26
2018-09-23T09:42:34.654Z,100598.45
2018-09-23T09:45:01.644Z,100597.80
2018-09-23T09:47:28.716Z,100593.63
2018-09-23T09:49:55.751Z,100588.34
2018-09-23T09:52:22.744Z,100576.52
2018-09-23T09:54:49.755Z,100581.36
2018-09-23T09:57:16.756Z,100580.82
2018-09-23T09:59:43.743Z,100566.31
2018-09-23T10:02:10.836Z,100563.71
2018-09-23T10:04:37.801Z,100560.41
2018-09-23T10:07:04.996Z,100554.85
2018-09-23T10:09:31.999Z,100555.07
2018-09-23T10:11:59.067Z,100549.77
2018-09-23T10:14:26.463Z,100542.25
2018-09-23T10:16:53.467Z,100528.69
2018-09-23T10:19:20.468Z,100528.34
2018-09-23T10:21:47.603Z,100532.97
2018-09-23T10:24:14.771Z,100535.03
2018-09-23T10:26:41.864Z,100534.97
2018-09-23T10:29:08.909Z,100529.59
2018-09-23T10:31:36.367Z,100522.67
2018-09-23T10:34:03.977Z,100526.11
2018-09-23T10:36:30.992Z,100515.47
2018-09-23T10:38:58.007Z,100512.28
2018-09-23T10:41:25.000Z,100522.61
2018-09-23T10:43:51.981Z,100520.00
2018-09-23T10:46:18.956Z,100525.47
2018-09-23T10:48:47.296Z,100524.20
2018-09-23T10:51:16.226Z,100519.66
2018-09-23T10:53:43.353Z,100514.31
2018-09-23T10:56:10.581Z,100519.42
2018-09-23T10:58:38.883Z,100522.83
2018-09-23T11:01:06.420Z,100535.42
2018-09-23T11:03:33.574Z,100536.05
2018-09-23T11:06:00.772Z,100535.39
2018-09-23T11:08:27.844Z,100527.78
2018-09-23T11:10:55.807Z,100525.80
2018-09-23T11:13:22.976Z,100518.25
2018-09-23T11:15:49.952Z,100514.98
2018-09-23T11:18:16.938Z,100474.52
2018-09-23T11:20:44.168Z,100500.30
2018-09-23T11:23:11.603Z,100489.85
2018-09-23T11:25:38.655Z,100481.39
2018-09-23T11:28:06.257Z,100465.97
2018-09-23T11:30:33.253Z,100456.64
2018-09-23T11:33:00.331Z,100458.25
2018-09-23T11:35:27.755Z,100460.22
2018-09-23T11:37:54.840Z,100441.56
2018-09-23T11:40:21.880Z,100429.83
2018-09-23T11:42:49.516Z,100447.94
2018-09-23T11:45:16.467Z,100444.33
2018-09-23T11:47:43.567Z,100434.95
2018-09-23T11:50:11.083Z,100429.70
2018-09-23T11:52:38.106Z,100432.15
2018-09-23T11:55:05.512Z,100435.41
2018-09-23T11:57:32.779Z,100441.25
2018-09-23T11:59:59.751Z,100442.91
2018-09-23T12:02:26.924Z,100439.48
2018-09-23T12:04:54.024Z,100438.39
2018-09-23T12:07:21.277Z,100420.89
2018-09-23T12:09:48.247Z,100428.41
2018-09-23T12:12:15.724Z,100425.12
2018-09-23T12:14:42.757Z,100430.66
2018-09-23T12:17:09.691Z,100448.06
2018-09-23T12:19:36.918Z,100453.11
2018-09-23T12:22:03.904Z,100447.01
2018-09-23T12:24:30.959Z,100452.27
2018-09-23T12:26:58.268Z,100442.62
2018-09-23T12:29:25.491Z,100450.19
2018-09-23T12:31:52.484Z,100454.91
2018-09-23T12:34:26.570Z,100444.94
2018-09-23T12:36:53.635Z,100441.81
2018-09-23T12:39:20.612Z,100438.85
2018-09-23T12:41:47.712Z,100440.16
2018-09-23T12:44:14.815Z,100442.07
2018-09-23T12:46:41.845Z,100430.67
2018-09-23T12:49:09.375Z,100429.57
2018-09-23T12:51:36.356Z,100437.34
2018-09-23T12:54:03.427Z,100425.52
2018-09-23T12:56:30.432Z,100420.85
2018-09-23T12:58:57.697Z,100412.80
2018-09-23T13:01:24.859Z,100392.68
2018-09-23T13:03:51.908Z,100398.47
2018-09-23T13:06:19.101Z,100394.98
2018-09-23T13:08:46.152Z,100376.42
2018-09-23T13:11:13.252Z,100360.82
2018-09-23T13:13:40.608Z,100360.39
2018-09-23T13:16:07.679Z,100360.48
2018-09-23T13:18:34.882Z,100353.30
2018-09-23T13:21:02.338Z,100339.70
2018-09-23T13:23:29.304Z,100358.08
2018-09-23T13:25:56.790Z,100351.83
2018-09-23T13:28:24.032Z,100332.39
2018-09-23T13:30:51.024Z,100334.82
2018-09-23T13:33:18.111Z,100338.09
2018-09-23T13:35:46.139Z,100249.89
2018-09-23T13:38:13.704Z,100283.30
2018-09-23T13:40:40.739Z,100271.37
2018-09-23T13:43:07.711Z,100295.52
2018-09-23T13:45:34.679Z,100323.39
2018-09-23T13:48:01.920Z,100338.55
2018-09-23T13:50:28.904Z,100323.71
2018-09-23T13:52:55.896Z,100320.00
2018-09-23T13:55:23.227Z,100310.73
2018-09-23T13:57:50.288Z,100309.56
2018-09-23T14:00:17.247Z,100320.36
2018-09-23T14:02:44.759Z,100318.99
2018-09-23T14:05:11.797Z,100304.28
2018-09-23T14:07:39.531Z,100277.97
2018-09-23T14:10:06.660Z,100296.35
2018-09-23T14:12:33.855Z,100306.02
2018-09-23T14:15:00.907Z,100311.20
2018-09-23T14:17:27.880Z,100327.21
2018-09-23T14:19:55.238Z,100320.70
2018-09-23T14:22:22.213Z,100330.75
2018-09-23T14:24:49.193Z,100339.14
2018-09-23T14:27:16.209Z,100333.66
2018-09-23T14:29:43.191Z,100327.44
2018-09-23T14:32:10.283Z,100320.00
2018-09-23T14:34:37.283Z,100304.77
2018-09-23T14:37:04.398Z,100303.43
2018-09-23T14:39:31.474Z,100313.80
2018-09-23T14:41:58.676Z,100333.77
2018-09-23T14:44:25.603Z,100323.89
2018-09-23T14:46:52.960Z,100336.27
2018-09-23T14:49:19.943Z,100361.08
2018-09-23T14:51:46.904Z,100367.75
2018-09-23T14:54:14.021Z,100358.63
2018-09-23T14:56:40.891Z,100349.89
2018-09-23T14:59:07.909Z,100359.37
2018-09-23T15:01:35.056Z,100353.48
2018-09-23T15:04:02.042Z,100335.80
2018-09-23T15:06:29.131Z,100345.67
2018-09-23T15:08:56.199Z,100345.15
2018-09-23T15:11:23.183Z,100346.41
2018-09-23T15:13:50.277Z,100343.77
2018-09-23T15:16:17.311Z,100343.43
2018-09-23T15:18:44.419Z,100346.35
2018-09-23T15:21:11.384Z,100349.88
2018-09-23T15:23:38.744Z,100347.89
2018-09-23T15:26:05.753Z,100353.64
2018-09-23T15:28:32.748Z,100361.33
2018-09-23T15:30:59.803Z,100358.04
2018-09-23T15:33:26.905Z,100337.39
2018-09-23T15:35:54.230Z,100337.03
2018-09-23T15:38:21.512Z,100333.98
2018-09-23T15:40:49.090Z,100328.66
2018-09-23T15:43:16.667Z,100331.56
2018-09-23T15:45:43.727Z,100326.98
2018-09-23T15:48:10.795Z,100336.80
2018-09-23T15:50:38.108Z,100341.29
2018-09-23T15:53:05.223Z,100339.08
2018-09-23T15:55:32.195Z,100331.44
2018-09-23T15:58:00.355Z,100333.80
2018-09-23T16:00:27.287Z,100330.61
2018-09-23T16:02:54.613Z,100333.95
2018-09-23T16:05:21.637Z,100343.66
2018-09-23T16:07:48.953Z,100343.02
2018-09-23T16:10:16.060Z,100348.63
2018-09-23T16:12:43.135Z,100351.35
2018-09-23T16:15:10.239Z,100353.00
2018-09-23T16:17:37.281Z,100349.48
2018-09-23T16:20:05.195Z,100344.40
2018-09-23T16:22:32.233Z,100354.91
2018-09-23T16:24:59.199Z,100353.02
2018-09-23T16:27:26.185Z,100350.10
2018-09-23T16:29:54.168Z,100347.84
2018-09-23T16:32:21.411Z,100353.14
2018-09-23T16:34:48.508Z,100355.36
2018-09-23T16:37:15.511Z,100343.75
2018-09-23T16:39:42.727Z,100359.45
2018-09-23T16:42:10.149Z,100358.28
2018-09-23T16:44:37.112Z,100351.91
2018-09-23T16:47:04.206Z,100353.61
2018-09-23T16:49:31.215Z,100358.98
2018-09-23T16:51:58.928Z,100364.96
2018-09-23T16:54:26.111Z,100361.34
2018-09-23T16:56:53.036Z,100356.30
2018-09-23T16:59:20.267Z,100361.78
2018-09-23T17:01:47.460Z,100362.64
2018-09-23T17:04:14.429Z,100369.34
2018-09-23T17:06:41.467Z,100371.00
2018-09-23T17:09:10.628Z,100372.97
2018-09-23T17:11:37.994Z,100374.72
2018-09-23T17:14:05.052Z,100377.30
2018-09-23T17:16:32.024Z,100383.85
2018-09-23T17:18:59.051Z,100400.21
2018-09-23T17:21:26.638Z,100404.30
2018-09-23T17:23:53.799Z,100409.66
2018-09-23T17:26:20.783Z,100407.66
2018-09-23T17:28:48.041Z,100416.78
2018-09-23T17:31:15.334Z,100418.97
2018-09-23T17:33:42.321Z,100427.65
2018-09-23T17:36:09.670Z,100436.16
2018-09-23T17:38:36.979Z,100435.29
2018-09-23T17:41:04.460Z,100432.91
2018-09-23T17:43:31.540Z,100438.45
2018-09-23T17:45:59.604Z,100446.29
2018-09-23T17:48:26.723Z,100451.92
2018-09-23T17:50:53.979Z,100457.02
2018-09-23T17:53:20.981Z,100462.45
2018-09-23T17:55:47.973Z,100469.14
2018-09-23T17:58:14.968Z,100473.56
2018-09-23T18:00:42.789Z,100484.11
2018-09-23T18:03:10.453Z,100484.98
2018-09-23T18:05:37.483Z,100485.17
2018-09-23T18:08:04.631Z,100484.28
2018-09-23T18:10:31.651Z,100494.66
2018-09-23T18:12:58.663Z,100495.85
2018-09-23T18:15:25.656Z,100499.37
2018-09-23T18:17:52.863Z,100507.96
2018-09-23T18:20:19.875Z,100501.49
2018-09-23T18:22:46.852Z,100506.98
2018-09-23T18:25:13.845Z,100518.77
2018-09-23T18:27:40.991Z,100518.23
2018-09-23T18:30:07.999Z,100517.86
2018-09-23T18:32:35.333Z,100526.77
2018-09-23T18:35:02.398Z,100531.31
2018-09-23T18:37:29.497Z,100537.98
2018-09-23T18:39:56.418Z,100536.53
2018-09-23T18:42:23.395Z,100544.12
2018-09-23T18:44:50.403Z,100555.87
2018-09-23T18:47:17.513Z,100546.16
2018-09-23T18:49:44.516Z,100557.64
2018-09-23T18:52:11.484Z,100567.08
2018-09-23T18:54:44.247Z,100568.64
2018-09-23T18:57:11.228Z,100569.87
2018-09-23T18:59:38.227Z,100579.03
2018-09-23T19:02:05.541Z,100580.40
2018-09-23T19:04:32.606Z,100584.05
2018-09-23T19:06:59.583Z,100596.22
2018-09-23T19:09:26.575Z,100604.99
2018-09-23T19:11:53.663Z,100603.53
2018-09-23T19:14:21.084Z,100603.42
2018-09-23T19:16:49.084Z,100608.83
2018-09-23T19:19:16.175Z,100608.05
2018-09-23T19:21:43.211Z,100615.75
2018-09-23T19:24:10.456Z,100616.45
2018-09-23T19:26:37.436Z,100620.69
2018-09-23T19:29:04.523Z,100627.42
2018-09-23T19:31:31.529Z,100634.08
2018-09-23T19:33:58.510Z,100637.25
2018-09-23T19:36:25.589Z,100644.19
2018-09-23T19:38:53.802Z,100643.91
2018-09-23T19:41:20.787Z,100647.85
2018-09-23T19:43:47.847Z,100660.75
2018-09-23T19:46:14.959Z,100669.25
2018-09-23T19:48:41.972Z,100671.64
2018-09-23T19:51:09.077Z,100680.19
2018-09-23T19:53:36.171Z,100692.23
2018-09-23T19:56:03.332Z,100694.08
2018-09-23T19:58:30.319Z,100692.33
2018-09-23T20:00:57.623Z,100701.58
2018-09-23T20:03:24.684Z,100702.14
2018-09-23T20:05:51.996Z,100707.16
2018-09-23T20:08:19.095Z,100710.69
2018-09-23T20:10:46.083Z,100721.21
2018-09-23T20:13:13.079Z,100729.48
2018-09-23T20:15:40.221Z,100734.99
2018-09-23T20:18:07.171Z,100733.98
2018-09-23T20:20:35.196Z,100740.05
2018-09-23T20:23:02.208Z,100747.35
2018-09-23T20:25:29.259Z,100756.39
2018-09-23T20:27:56.428Z,100761.10
2018-09-23T20:30:23.472Z,100772.55
2018-09-23T20:32:50.873Z,100769.62
2018-09-23T20:35:17.845Z,100768.45
2018-09-23T20:37:44.899Z,100772.82
2018-09-23T20:40:11.928Z,100781.11
2018-09-23T20:42:39.005Z,100777.95
2018-09-23T20:45:06.072Z,100784.17
2018-09-23T20:47:33.058Z,100793.20
2018-09-23T20:50:00.345Z,100793.97
2018-09-23T20:52:27.493Z,100797.89
2018-09-23T20:54:54.635Z,100804.02
2018-09-23T20:57:21.900Z,100807.77
2018-09-23T20:59:49.095Z,100816.64
2018-09-23T21:02:16.128Z,100817.77
2018-09-23T21:04:43.344Z,100829.97
2018-09-23T21:07:10.332Z,100833.59
2018-09-23T21:09:37.576Z,100837.80
2018-09-23T21:12:04.969Z,100837.41
2018-09-23T21:14:32.718Z,100838.00
2018-09-23T21:16:59.706Z,100851.98
2018-09-23T21:19:26.859Z,100861.16
2018-09-23T21:21:53.841Z,100856.53
2018-09-23T21:24:21.307Z,100857.92
2018-09-23T21:26:48.332Z,100858.33
2018-09-23T21:29:15.615Z,100872.77
2018-09-23T21:31:42.707Z,100868.95
2018-09-23T21:34:10.196Z,100873.54
2018-09-23T21:36:37.525Z,100874.12
2018-09-23T21:39:08.137Z,100880.77
2018-09-23T21:41:35.212Z,100890.83
2018-09-23T21:44:02.276Z,100893.69
2018-09-23T21:46:29.325Z,100893.43
2018-09-23T21:48:57.296Z,100902.57
2018-09-23T21:51:24.430Z,100911.17
2018-09-23T21:53:51.699Z,100918.36
2018-09-23T21:56:18.844Z,100918.61
2018-09-23T21:58:45.827Z,100923.67
2018-09-23T22:01:12.837Z,100928.92
2018-09-23T22:03:39.917Z,100940.95
2018-09-23T22:06:07.372Z,100939.09
2018-09-23T22:08:34.471Z,100943.70
2018-09-23T22:11:01.970Z,100942.86
2018-09-23T22:13:29.131Z,100951.13
2018-09-23T22:15:56.121Z,100959.41
2018-09-23T22:18:23.139Z,100959.25
2018-09-23T22:20:50.120Z,100956.98
2018-09-23T22:23:17.831Z,100958.02
2018-09-23T22:25:44.816Z,100960.52
2018-09-23T22:28:11.877Z,100964.88
2018-09-23T22:30:38.934Z,100958.97
2018-09-23T22:33:06.019Z,100969.72
2018-09-23T22:35:32.992Z,100970.69
2018-09-23T22:37:59.968Z,100974.21
2018-09-23T22:40:27.047Z,100974.58
2018-09-23T22:42:54.023Z,100987.19
2018-09-23T22:45:21.016Z,100987.65
2018-09-23T22:47:48.070Z,100990.53
2018-09-23T22:50:15.095Z,101000.41
2018-09-23T22:52:42.083Z,100999.16
2018-09-23T22:55:09.144Z,101002.74
2018-09-23T22:57:36.160Z,101003.20
2018-09-23T23:00:03.708Z,101011.19
2018-09-23T23:02:30.776Z,101011.66
2018-09-23T23:04:58.518Z,101011.91
2018-09-23T23:07:25.971Z,101019.03
2018-09-23T23:09:53.327Z,101025.66
2018-09-23T23:12:21.196Z,101022.48
2018-09-23T23:14:48.732Z,101031.62
2018-09-23T23:17:15.937Z,101045.91
2018-09-23T23:19:47.205Z,101040.91
2018-09-23T23:22:15.009Z,101051.69
2018-09-23T23:24:42.095Z,101056.70
2018-09-23T23:27:09.287Z,101062.32
2018-09-23T23:29:36.354Z,101056.56
2018-09-23T23:32:04.075Z,101064.45
2018-09-23T23:34:31.548Z,101069.46
2018-09-23T23:36:59.995Z,101073.59
2018-09-23T23:39:26.979Z,101076.00
2018-09-23T23:41:54.591Z,101078.60
2018-09-23T23:44:21.891Z,101085.44
2018-09-23T23:46:49.276Z,101090.11
2018-09-23T23:49:16.247Z,101100.31
2018-09-23T23:51:43.424Z,101108.45
2018-09-23T23:54:10.961Z,101103.62
2018-09-23T23:56:37.942Z,101116.08
2018-09-23T23:59:06.409Z,101123.34
